sensor_id;sensor_type;location;lat;lon;timestamp;temperature;humidity
68924;DHT22;55961;52.156;20.942;2023-07-24T00:01:13;21.90;58.30
68924;DHT22;55961;52.156;20.942;2023-07-24T00:03:39;21.80;58.20
68924;DHT22;55961;52.156;20.942;2023-07-24T00:06:05;21.80;58.20
68924;DHT22;55961;52.156;20.942;2023-07-24T00:08:40;21.80;58.40
68924;DHT22;55961;52.156;20.942;2023-07-24T00:11:07;21.80;58.10
68924;DHT22;55961;52.156;20.942;2023-07-24T00:13:39;21.80;58.00
68924;DHT22;55961;52.156;20.942;2023-07-24T00:16:08;21.80;57.70
68924;DHT22;55961;52.156;20.942;2023-07-24T00:18:34;21.70;57.60
68924;DHT22;55961;52.156;20.942;2023-07-24T00:21:00;21.70;57.60
68924;DHT22;55961;52.156;20.942;2023-07-24T00:23:26;21.70;57.60
68924;DHT22;55961;52.156;20.942;2023-07-24T00:25:52;21.70;57.60
68924;DHT22;55961;52.156;20.942;2023-07-24T00:28:19;21.70;57.50
68924;DHT22;55961;52.156;20.942;2023-07-24T00:30:45;21.60;57.30
68924;DHT22;55961;52.156;20.942;2023-07-24T00:33:11;21.60;57.30
68924;DHT22;55961;52.156;20.942;2023-07-24T00:35:37;21.60;57.20
68924;DHT22;55961;52.156;20.942;2023-07-24T00:38:03;21.60;57.20
68924;DHT22;55961;52.156;20.942;2023-07-24T00:40:30;21.60;57.00
68924;DHT22;55961;52.156;20.942;2023-07-24T00:42:55;21.60;57.00
68924;DHT22;55961;52.156;20.942;2023-07-24T00:45:22;21.50;56.90
68924;DHT22;55961;52.156;20.942;2023-07-24T00:47:48;21.50;56.90
68924;DHT22;55961;52.156;20.942;2023-07-24T00:50:15;21.50;56.80
68924;DHT22;55961;52.156;20.942;2023-07-24T00:52:41;21.50;56.70
68924;DHT22;55961;52.156;20.942;2023-07-24T00:55:09;21.50;56.70
68924;DHT22;55961;52.156;20.942;2023-07-24T00:57:36;21.50;56.70
68924;DHT22;55961;52.156;20.942;2023-07-24T01:00:02;21.50;56.40
68924;DHT22;55961;52.156;20.942;2023-07-24T01:02:30;21.50;56.20
68924;DHT22;55961;52.156;20.942;2023-07-24T01:04:56;21.50;56.10
68924;DHT22;55961;52.156;20.942;2023-07-24T01:07:22;21.50;55.90
68924;DHT22;55961;52.156;20.942;2023-07-24T01:09:48;21.50;55.60
68924;DHT22;55961;52.156;20.942;2023-07-24T01:12:34;21.50;55.40
68924;DHT22;55961;52.156;20.942;2023-07-24T01:15:32;21.50;55.10
68924;DHT22;55961;52.156;20.942;2023-07-24T01:18:03;21.50;54.80
68924;DHT22;55961;52.156;20.942;2023-07-24T01:20:32;21.50;54.50
68924;DHT22;55961;52.156;20.942;2023-07-24T01:25:35;21.60;54.20
68924;DHT22;55961;52.156;20.942;2023-07-24T01:28:09;21.60;54.10
68924;DHT22;55961;52.156;20.942;2023-07-24T01:30:35;21.60;53.70
68924;DHT22;55961;52.156;20.942;2023-07-24T01:33:02;21.70;53.30
68924;DHT22;55961;52.156;20.942;2023-07-24T01:35:29;21.70;53.50
68924;DHT22;55961;52.156;20.942;2023-07-24T01:37:56;21.70;53.40
68924;DHT22;55961;52.156;20.942;2023-07-24T01:40:23;21.70;53.30
68924;DHT22;55961;52.156;20.942;2023-07-24T01:42:49;21.70;53.20
68924;DHT22;55961;52.156;20.942;2023-07-24T01:45:16;21.70;53.00
68924;DHT22;55961;52.156;20.942;2023-07-24T01:47:42;21.70;52.90
68924;DHT22;55961;52.156;20.942;2023-07-24T01:50:08;21.80;52.70
68924;DHT22;55961;52.156;20.942;2023-07-24T01:52:34;21.80;52.40
68924;DHT22;55961;52.156;20.942;2023-07-24T01:55:00;21.80;52.10
68924;DHT22;55961;52.156;20.942;2023-07-24T01:57:26;21.80;52.00
68924;DHT22;55961;52.156;20.942;2023-07-24T01:59:52;21.80;51.80
68924;DHT22;55961;52.156;20.942;2023-07-24T02:02:18;21.80;51.70
68924;DHT22;55961;52.156;20.942;2023-07-24T02:04:46;21.80;51.70
68924;DHT22;55961;52.156;20.942;2023-07-24T02:07:12;21.80;51.60
68924;DHT22;55961;52.156;20.942;2023-07-24T02:09:38;21.80;51.50
68924;DHT22;55961;52.156;20.942;2023-07-24T02:12:04;21.80;51.40
68924;DHT22;55961;52.156;20.942;2023-07-24T02:14:30;21.80;51.40
68924;DHT22;55961;52.156;20.942;2023-07-24T02:16:56;21.80;51.20
68924;DHT22;55961;52.156;20.942;2023-07-24T02:19:22;21.80;51.40
68924;DHT22;55961;52.156;20.942;2023-07-24T02:21:48;21.80;51.40
68924;DHT22;55961;52.156;20.942;2023-07-24T02:24:14;21.80;51.20
68924;DHT22;55961;52.156;20.942;2023-07-24T02:26:40;21.80;51.10
68924;DHT22;55961;52.156;20.942;2023-07-24T02:29:06;21.80;51.10
68924;DHT22;55961;52.156;20.942;2023-07-24T02:31:31;21.80;51.10
68924;DHT22;55961;52.156;20.942;2023-07-24T02:33:57;21.80;51.20
68924;DHT22;55961;52.156;20.942;2023-07-24T02:36:23;21.70;51.40
68924;DHT22;55961;52.156;20.942;2023-07-24T02:38:49;21.70;51.30
68924;DHT22;55961;52.156;20.942;2023-07-24T02:41:15;21.70;51.30
68924;DHT22;55961;52.156;20.942;2023-07-24T02:43:41;21.70;51.40
68924;DHT22;55961;52.156;20.942;2023-07-24T02:46:07;21.60;51.70
68924;DHT22;55961;52.156;20.942;2023-07-24T02:48:33;21.60;51.50
68924;DHT22;55961;52.156;20.942;2023-07-24T02:51:00;21.60;51.60
68924;DHT22;55961;52.156;20.942;2023-07-24T02:53:26;21.60;51.70
68924;DHT22;55961;52.156;20.942;2023-07-24T02:55:52;21.60;51.80
68924;DHT22;55961;52.156;20.942;2023-07-24T02:58:18;21.50;51.80
68924;DHT22;55961;52.156;20.942;2023-07-24T03:00:46;21.50;51.80
68924;DHT22;55961;52.156;20.942;2023-07-24T03:03:12;21.50;51.80
68924;DHT22;55961;52.156;20.942;2023-07-24T03:05:38;21.40;51.60
68924;DHT22;55961;52.156;20.942;2023-07-24T03:08:04;21.40;51.50
68924;DHT22;55961;52.156;20.942;2023-07-24T03:10:30;21.40;51.70
68924;DHT22;55961;52.156;20.942;2023-07-24T03:12:56;21.40;51.70
68924;DHT22;55961;52.156;20.942;2023-07-24T03:15:22;21.40;51.90
68924;DHT22;55961;52.156;20.942;2023-07-24T03:17:48;21.40;52.00
68924;DHT22;55961;52.156;20.942;2023-07-24T03:20:15;21.40;52.00
68924;DHT22;55961;52.156;20.942;2023-07-24T03:22:42;21.40;52.20
68924;DHT22;55961;52.156;20.942;2023-07-24T03:25:08;21.40;52.30
68924;DHT22;55961;52.156;20.942;2023-07-24T03:27:34;21.40;52.50
68924;DHT22;55961;52.156;20.942;2023-07-24T03:30:00;21.40;52.50
68924;DHT22;55961;52.156;20.942;2023-07-24T03:32:26;21.40;52.60
68924;DHT22;55961;52.156;20.942;2023-07-24T03:34:52;21.40;52.80
68924;DHT22;55961;52.156;20.942;2023-07-24T03:37:19;21.40;52.70
68924;DHT22;55961;52.156;20.942;2023-07-24T03:39:45;21.40;52.70
68924;DHT22;55961;52.156;20.942;2023-07-24T03:42:11;21.40;52.80
68924;DHT22;55961;52.156;20.942;2023-07-24T03:44:40;21.40;53.00
68924;DHT22;55961;52.156;20.942;2023-07-24T03:47:07;21.40;53.10
68924;DHT22;55961;52.156;20.942;2023-07-24T03:49:33;21.40;53.20
68924;DHT22;55961;52.156;20.942;2023-07-24T03:51:59;21.40;53.30
68924;DHT22;55961;52.156;20.942;2023-07-24T03:54:25;21.40;53.40
68924;DHT22;55961;52.156;20.942;2023-07-24T03:56:51;21.40;53.30
68924;DHT22;55961;52.156;20.942;2023-07-24T03:59:17;21.40;53.30
68924;DHT22;55961;52.156;20.942;2023-07-24T04:01:43;21.40;53.30
68924;DHT22;55961;52.156;20.942;2023-07-24T04:04:09;21.40;53.30
68924;DHT22;55961;52.156;20.942;2023-07-24T04:06:35;21.50;53.30
68924;DHT22;55961;52.156;20.942;2023-07-24T04:09:01;21.40;53.30
68924;DHT22;55961;52.156;20.942;2023-07-24T04:11:27;21.40;53.30
68924;DHT22;55961;52.156;20.942;2023-07-24T04:13:53;21.40;53.30
68924;DHT22;55961;52.156;20.942;2023-07-24T04:16:19;21.40;53.30
68924;DHT22;55961;52.156;20.942;2023-07-24T04:18:44;21.40;53.40
68924;DHT22;55961;52.156;20.942;2023-07-24T04:21:10;21.40;53.50
68924;DHT22;55961;52.156;20.942;2023-07-24T04:23:36;21.50;53.60
68924;DHT22;55961;52.156;20.942;2023-07-24T04:26:02;21.50;53.80
68924;DHT22;55961;52.156;20.942;2023-07-24T04:28:28;21.50;53.50
68924;DHT22;55961;52.156;20.942;2023-07-24T04:30:54;21.50;53.50
68924;DHT22;55961;52.156;20.942;2023-07-24T04:33:20;21.50;53.80
68924;DHT22;55961;52.156;20.942;2023-07-24T04:35:49;21.50;53.70
68924;DHT22;55961;52.156;20.942;2023-07-24T04:38:15;21.50;53.60
68924;DHT22;55961;52.156;20.942;2023-07-24T04:40:44;21.50;53.90
68924;DHT22;55961;52.156;20.942;2023-07-24T04:43:10;21.60;53.90
68924;DHT22;55961;52.156;20.942;2023-07-24T04:45:36;21.50;53.70
68924;DHT22;55961;52.156;20.942;2023-07-24T04:48:02;21.60;53.90
68924;DHT22;55961;52.156;20.942;2023-07-24T04:50:28;21.60;53.90
68924;DHT22;55961;52.156;20.942;2023-07-24T04:52:55;21.60;53.90
68924;DHT22;55961;52.156;20.942;2023-07-24T04:55:21;21.60;53.90
68924;DHT22;55961;52.156;20.942;2023-07-24T04:57:48;21.70;53.80
68924;DHT22;55961;52.156;20.942;2023-07-24T05:00:14;21.70;53.80
68924;DHT22;55961;52.156;20.942;2023-07-24T05:02:40;21.70;53.60
68924;DHT22;55961;52.156;20.942;2023-07-24T05:05:06;21.80;53.40
68924;DHT22;55961;52.156;20.942;2023-07-24T05:07:32;21.80;53.80
68924;DHT22;55961;52.156;20.942;2023-07-24T05:09:59;21.90;53.90
68924;DHT22;55961;52.156;20.942;2023-07-24T05:12:24;21.90;53.40
68924;DHT22;55961;52.156;20.942;2023-07-24T05:15:05;22.00;52.90
68924;DHT22;55961;52.156;20.942;2023-07-24T05:17:34;22.00;53.10
68924;DHT22;55961;52.156;20.942;2023-07-24T05:20:01;22.10;53.40
68924;DHT22;55961;52.156;20.942;2023-07-24T05:22:27;22.10;53.10
68924;DHT22;55961;52.156;20.942;2023-07-24T05:24:53;22.10;53.10
68924;DHT22;55961;52.156;20.942;2023-07-24T05:27:18;22.20;52.60
68924;DHT22;55961;52.156;20.942;2023-07-24T05:29:44;22.20;52.90
68924;DHT22;55961;52.156;20.942;2023-07-24T05:32:11;22.20;52.60
68924;DHT22;55961;52.156;20.942;2023-07-24T05:34:37;22.20;52.90
68924;DHT22;55961;52.156;20.942;2023-07-24T05:37:03;22.20;52.80
68924;DHT22;55961;52.156;20.942;2023-07-24T05:39:30;22.20;52.60
68924;DHT22;55961;52.156;20.942;2023-07-24T05:41:56;22.30;52.80
68924;DHT22;55961;52.156;20.942;2023-07-24T05:44:22;22.30;52.90
68924;DHT22;55961;52.156;20.942;2023-07-24T05:46:47;22.30;52.60
68924;DHT22;55961;52.156;20.942;2023-07-24T05:49:14;22.30;52.50
68924;DHT22;55961;52.156;20.942;2023-07-24T05:51:39;22.30;52.50
68924;DHT22;55961;52.156;20.942;2023-07-24T05:54:06;22.30;52.60
68924;DHT22;55961;52.156;20.942;2023-07-24T05:56:31;22.40;52.50
68924;DHT22;55961;52.156;20.942;2023-07-24T05:58:57;22.40;52.50
68924;DHT22;55961;52.156;20.942;2023-07-24T06:01:23;22.40;52.40
68924;DHT22;55961;52.156;20.942;2023-07-24T06:03:49;22.40;52.30
68924;DHT22;55961;52.156;20.942;2023-07-24T06:06:15;22.40;52.20
68924;DHT22;55961;52.156;20.942;2023-07-24T06:08:41;22.50;52.10
68924;DHT22;55961;52.156;20.942;2023-07-24T06:11:07;22.50;52.60
68924;DHT22;55961;52.156;20.942;2023-07-24T06:13:33;22.50;52.40
68924;DHT22;55961;52.156;20.942;2023-07-24T06:15:58;22.60;52.30
68924;DHT22;55961;52.156;20.942;2023-07-24T06:18:25;22.60;52.90
68924;DHT22;55961;52.156;20.942;2023-07-24T06:20:54;22.60;52.40
68924;DHT22;55961;52.156;20.942;2023-07-24T06:23:20;22.60;52.30
68924;DHT22;55961;52.156;20.942;2023-07-24T06:25:46;22.60;52.30
68924;DHT22;55961;52.156;20.942;2023-07-24T06:28:12;22.60;52.40
68924;DHT22;55961;52.156;20.942;2023-07-24T06:30:38;22.60;52.40
68924;DHT22;55961;52.156;20.942;2023-07-24T06:33:04;22.60;52.70
68924;DHT22;55961;52.156;20.942;2023-07-24T06:35:31;22.60;52.60
68924;DHT22;55961;52.156;20.942;2023-07-24T06:37:57;22.60;52.50
68924;DHT22;55961;52.156;20.942;2023-07-24T06:40:23;22.70;52.40
68924;DHT22;55961;52.156;20.942;2023-07-24T06:42:49;22.70;52.10
68924;DHT22;55961;52.156;20.942;2023-07-24T06:45:15;22.70;52.10
68924;DHT22;55961;52.156;20.942;2023-07-24T06:47:41;22.80;52.30
68924;DHT22;55961;52.156;20.942;2023-07-24T06:50:07;22.80;52.20
68924;DHT22;55961;52.156;20.942;2023-07-24T06:52:33;22.90;52.20
68924;DHT22;55961;52.156;20.942;2023-07-24T06:54:59;23.00;51.70
68924;DHT22;55961;52.156;20.942;2023-07-24T06:57:25;23.00;51.70
68924;DHT22;55961;52.156;20.942;2023-07-24T06:59:51;23.00;51.70
68924;DHT22;55961;52.156;20.942;2023-07-24T07:02:17;23.10;52.00
68924;DHT22;55961;52.156;20.942;2023-07-24T07:04:43;23.10;51.40
68924;DHT22;55961;52.156;20.942;2023-07-24T07:07:09;23.10;51.60
68924;DHT22;55961;52.156;20.942;2023-07-24T07:09:35;23.20;51.40
68924;DHT22;55961;52.156;20.942;2023-07-24T07:12:01;23.20;51.40
68924;DHT22;55961;52.156;20.942;2023-07-24T07:14:27;23.30;51.20
68924;DHT22;55961;52.156;20.942;2023-07-24T07:16:53;23.30;51.10
68924;DHT22;55961;52.156;20.942;2023-07-24T07:19:19;23.40;51.50
68924;DHT22;55961;52.156;20.942;2023-07-24T07:21:45;23.60;51.60
68924;DHT22;55961;52.156;20.942;2023-07-24T07:24:11;23.70;50.70
68924;DHT22;55961;52.156;20.942;2023-07-24T07:26:37;23.80;50.80
68924;DHT22;55961;52.156;20.942;2023-07-24T07:29:03;23.90;50.40
68924;DHT22;55961;52.156;20.942;2023-07-24T07:31:29;24.00;49.80
68924;DHT22;55961;52.156;20.942;2023-07-24T07:33:54;24.10;49.50
68924;DHT22;55961;52.156;20.942;2023-07-24T07:36:20;24.20;49.20
68924;DHT22;55961;52.156;20.942;2023-07-24T07:38:48;24.30;49.50
68924;DHT22;55961;52.156;20.942;2023-07-24T07:41:14;24.40;49.20
68924;DHT22;55961;52.156;20.942;2023-07-24T07:43:40;24.60;48.40
68924;DHT22;55961;52.156;20.942;2023-07-24T07:46:06;24.70;48.10
68924;DHT22;55961;52.156;20.942;2023-07-24T07:48:32;24.80;47.90
68924;DHT22;55961;52.156;20.942;2023-07-24T07:50:58;24.80;48.10
68924;DHT22;55961;52.156;20.942;2023-07-24T07:53:24;24.90;47.60
68924;DHT22;55961;52.156;20.942;2023-07-24T07:55:57;25.00;47.60
68924;DHT22;55961;52.156;20.942;2023-07-24T07:58:23;25.10;48.30
68924;DHT22;55961;52.156;20.942;2023-07-24T08:00:50;25.20;47.90
68924;DHT22;55961;52.156;20.942;2023-07-24T08:03:15;25.30;47.40
68924;DHT22;55961;52.156;20.942;2023-07-24T08:05:41;25.40;47.40
68924;DHT22;55961;52.156;20.942;2023-07-24T08:08:07;25.50;47.60
68924;DHT22;55961;52.156;20.942;2023-07-24T08:10:33;25.60;46.90
68924;DHT22;55961;52.156;20.942;2023-07-24T08:13:02;25.70;46.40
68924;DHT22;55961;52.156;20.942;2023-07-24T08:15:28;25.70;46.60
68924;DHT22;55961;52.156;20.942;2023-07-24T08:17:53;25.80;46.50
68924;DHT22;55961;52.156;20.942;2023-07-24T08:20:20;25.80;46.40
68924;DHT22;55961;52.156;20.942;2023-07-24T08:22:45;25.90;46.70
68924;DHT22;55961;52.156;20.942;2023-07-24T08:25:12;25.90;46.40
68924;DHT22;55961;52.156;20.942;2023-07-24T08:27:38;26.00;46.30
68924;DHT22;55961;52.156;20.942;2023-07-24T08:30:04;26.10;46.60
68924;DHT22;55961;52.156;20.942;2023-07-24T08:32:30;26.30;45.70
68924;DHT22;55961;52.156;20.942;2023-07-24T08:34:56;26.40;45.50
68924;DHT22;55961;52.156;20.942;2023-07-24T08:37:22;26.50;45.80
68924;DHT22;55961;52.156;20.942;2023-07-24T08:39:48;26.60;45.10
68924;DHT22;55961;52.156;20.942;2023-07-24T08:42:14;26.70;45.00
68924;DHT22;55961;52.156;20.942;2023-07-24T08:44:42;26.90;45.00
68924;DHT22;55961;52.156;20.942;2023-07-24T08:47:11;27.00;44.80
68924;DHT22;55961;52.156;20.942;2023-07-24T08:49:40;27.10;44.00
68924;DHT22;55961;52.156;20.942;2023-07-24T08:52:08;27.20;43.70
68924;DHT22;55961;52.156;20.942;2023-07-24T08:54:36;27.30;43.90
68924;DHT22;55961;52.156;20.942;2023-07-24T08:57:06;27.30;43.60
68924;DHT22;55961;52.156;20.942;2023-07-24T08:59:32;27.30;43.70
68924;DHT22;55961;52.156;20.942;2023-07-24T09:01:58;27.30;44.80
68924;DHT22;55961;52.156;20.942;2023-07-24T09:04:24;27.40;44.30
68924;DHT22;55961;52.156;20.942;2023-07-24T09:06:51;27.50;44.20
68924;DHT22;55961;52.156;20.942;2023-07-24T09:09:17;27.60;44.40
68924;DHT22;55961;52.156;20.942;2023-07-24T09:11:50;27.70;44.00
68924;DHT22;55961;52.156;20.942;2023-07-24T09:14:29;27.80;44.10
68924;DHT22;55961;52.156;20.942;2023-07-24T09:19:30;28.20;43.40
68924;DHT22;55961;52.156;20.942;2023-07-24T09:21:55;28.40;43.40
68924;DHT22;55961;52.156;20.942;2023-07-24T09:24:21;28.60;42.50
68924;DHT22;55961;52.156;20.942;2023-07-24T09:26:51;28.80;41.80
68924;DHT22;55961;52.156;20.942;2023-07-24T09:29:18;29.00;41.70
68924;DHT22;55961;52.156;20.942;2023-07-24T09:31:44;29.10;41.80
68924;DHT22;55961;52.156;20.942;2023-07-24T09:34:18;29.20;41.20
68924;DHT22;55961;52.156;20.942;2023-07-24T09:36:44;29.30;41.50
68924;DHT22;55961;52.156;20.942;2023-07-24T09:39:11;29.40;41.00
68924;DHT22;55961;52.156;20.942;2023-07-24T09:41:38;29.50;41.20
68924;DHT22;55961;52.156;20.942;2023-07-24T09:44:05;29.60;40.70
68924;DHT22;55961;52.156;20.942;2023-07-24T09:46:32;29.70;40.60
68924;DHT22;55961;52.156;20.942;2023-07-24T09:48:58;29.70;41.20
68924;DHT22;55961;52.156;20.942;2023-07-24T09:51:24;29.80;40.70
68924;DHT22;55961;52.156;20.942;2023-07-24T09:53:58;29.90;40.80
68924;DHT22;55961;52.156;20.942;2023-07-24T09:56:25;30.00;40.50
68924;DHT22;55961;52.156;20.942;2023-07-24T09:58:52;29.90;39.80
68924;DHT22;55961;52.156;20.942;2023-07-24T10:01:20;30.00;40.00
68924;DHT22;55961;52.156;20.942;2023-07-24T10:03:48;30.00;39.90
68924;DHT22;55961;52.156;20.942;2023-07-24T10:06:16;30.00;40.00
68924;DHT22;55961;52.156;20.942;2023-07-24T10:08:42;30.00;39.80
68924;DHT22;55961;52.156;20.942;2023-07-24T10:11:10;30.00;39.80
68924;DHT22;55961;52.156;20.942;2023-07-24T10:13:37;29.90;39.90
68924;DHT22;55961;52.156;20.942;2023-07-24T10:16:03;29.90;39.70
68924;DHT22;55961;52.156;20.942;2023-07-24T10:18:34;29.90;40.20
68924;DHT22;55961;52.156;20.942;2023-07-24T10:23:27;30.00;39.40
68924;DHT22;55961;52.156;20.942;2023-07-24T10:25:53;30.00;39.70
68924;DHT22;55961;52.156;20.942;2023-07-24T10:28:19;30.10;40.00
68924;DHT22;55961;52.156;20.942;2023-07-24T10:30:55;30.10;39.10
68924;DHT22;55961;52.156;20.942;2023-07-24T10:33:21;30.00;38.40
68924;DHT22;55961;52.156;20.942;2023-07-24T10:35:53;30.00;38.00
68924;DHT22;55961;52.156;20.942;2023-07-24T10:38:36;29.90;38.20
68924;DHT22;55961;52.156;20.942;2023-07-24T10:41:04;29.90;38.10
68924;DHT22;55961;52.156;20.942;2023-07-24T10:43:58;29.80;38.20
68924;DHT22;55961;52.156;20.942;2023-07-24T10:46:38;29.70;38.70
68924;DHT22;55961;52.156;20.942;2023-07-24T10:49:05;29.60;38.80
68924;DHT22;55961;52.156;20.942;2023-07-24T10:51:32;29.60;38.80
68924;DHT22;55961;52.156;20.942;2023-07-24T10:54:02;29.50;38.10
68924;DHT22;55961;52.156;20.942;2023-07-24T10:56:27;29.50;38.30
68924;DHT22;55961;52.156;20.942;2023-07-24T10:58:53;29.40;38.60
68924;DHT22;55961;52.156;20.942;2023-07-24T11:01:19;29.40;38.70
68924;DHT22;55961;52.156;20.942;2023-07-24T11:03:46;29.50;38.80
68924;DHT22;55961;52.156;20.942;2023-07-24T11:06:19;29.60;39.10
68924;DHT22;55961;52.156;20.942;2023-07-24T11:08:53;29.60;39.00
68924;DHT22;55961;52.156;20.942;2023-07-24T11:11:19;29.70;38.70
68924;DHT22;55961;52.156;20.942;2023-07-24T11:13:45;29.70;39.40
68924;DHT22;55961;52.156;20.942;2023-07-24T11:16:11;29.70;39.50
68924;DHT22;55961;52.156;20.942;2023-07-24T11:18:48;29.70;39.10
68924;DHT22;55961;52.156;20.942;2023-07-24T11:21:15;29.70;38.90
68924;DHT22;55961;52.156;20.942;2023-07-24T11:23:52;29.70;38.80
68924;DHT22;55961;52.156;20.942;2023-07-24T11:26:22;29.70;39.20
68924;DHT22;55961;52.156;20.942;2023-07-24T11:28:52;29.70;39.30
68924;DHT22;55961;52.156;20.942;2023-07-24T11:31:18;29.80;39.70
68924;DHT22;55961;52.156;20.942;2023-07-24T11:33:49;29.90;39.30
68924;DHT22;55961;52.156;20.942;2023-07-24T11:36:15;30.00;39.90
68924;DHT22;55961;52.156;20.942;2023-07-24T11:38:41;30.20;39.30
68924;DHT22;55961;52.156;20.942;2023-07-24T11:41:08;30.30;38.60
68924;DHT22;55961;52.156;20.942;2023-07-24T11:43:34;30.40;38.50
68924;DHT22;55961;52.156;20.942;2023-07-24T11:46:00;30.40;38.70
68924;DHT22;55961;52.156;20.942;2023-07-24T11:48:26;30.50;38.20
68924;DHT22;55961;52.156;20.942;2023-07-24T11:50:56;30.60;38.30
68924;DHT22;55961;52.156;20.942;2023-07-24T11:53:28;30.60;38.20
68924;DHT22;55961;52.156;20.942;2023-07-24T11:55:56;30.60;38.40
68924;DHT22;55961;52.156;20.942;2023-07-24T11:58:25;30.70;37.90
68924;DHT22;55961;52.156;20.942;2023-07-24T12:00:51;30.70;37.80
68924;DHT22;55961;52.156;20.942;2023-07-24T12:03:36;30.80;37.50
68924;DHT22;55961;52.156;20.942;2023-07-24T12:06:02;30.80;38.00
68924;DHT22;55961;52.156;20.942;2023-07-24T12:08:33;31.00;38.60
68924;DHT22;55961;52.156;20.942;2023-07-24T12:11:00;31.10;37.80
68924;DHT22;55961;52.156;20.942;2023-07-24T12:13:26;31.20;37.60
68924;DHT22;55961;52.156;20.942;2023-07-24T12:15:54;31.30;37.50
68924;DHT22;55961;52.156;20.942;2023-07-24T12:18:20;31.30;37.70
68924;DHT22;55961;52.156;20.942;2023-07-24T12:20:46;31.30;37.80
68924;DHT22;55961;52.156;20.942;2023-07-24T12:23:13;31.40;37.80
68924;DHT22;55961;52.156;20.942;2023-07-24T12:25:38;31.50;37.70
68924;DHT22;55961;52.156;20.942;2023-07-24T12:28:04;31.50;37.40
68924;DHT22;55961;52.156;20.942;2023-07-24T12:30:30;31.60;37.80
68924;DHT22;55961;52.156;20.942;2023-07-24T12:32:56;31.70;37.90
68924;DHT22;55961;52.156;20.942;2023-07-24T12:35:22;31.90;37.10
68924;DHT22;55961;52.156;20.942;2023-07-24T12:37:48;32.10;36.10
68924;DHT22;55961;52.156;20.942;2023-07-24T12:40:14;32.10;35.60
68924;DHT22;55961;52.156;20.942;2023-07-24T12:42:40;32.10;36.30
68924;DHT22;55961;52.156;20.942;2023-07-24T12:45:06;32.10;36.30
68924;DHT22;55961;52.156;20.942;2023-07-24T12:47:32;32.20;36.40
68924;DHT22;55961;52.156;20.942;2023-07-24T12:50:00;32.20;36.00
68924;DHT22;55961;52.156;20.942;2023-07-24T12:52:28;32.20;36.00
68924;DHT22;55961;52.156;20.942;2023-07-24T12:54:54;32.20;35.60
68924;DHT22;55961;52.156;20.942;2023-07-24T12:57:20;32.30;35.90
68924;DHT22;55961;52.156;20.942;2023-07-24T12:59:46;32.30;36.20
68924;DHT22;55961;52.156;20.942;2023-07-24T13:02:12;32.40;35.80
68924;DHT22;55961;52.156;20.942;2023-07-24T13:04:38;32.40;35.60
68924;DHT22;55961;52.156;20.942;2023-07-24T13:07:04;32.40;35.30
68924;DHT22;55961;52.156;20.942;2023-07-24T13:09:30;32.30;35.40
68924;DHT22;55961;52.156;20.942;2023-07-24T13:11:56;32.20;35.60
68924;DHT22;55961;52.156;20.942;2023-07-24T13:14:22;32.10;35.80
68924;DHT22;55961;52.156;20.942;2023-07-24T13:16:50;32.00;36.10
68924;DHT22;55961;52.156;20.942;2023-07-24T13:19:16;32.00;36.10
68924;DHT22;55961;52.156;20.942;2023-07-24T13:21:42;31.90;36.70
68924;DHT22;55961;52.156;20.942;2023-07-24T13:24:09;31.90;36.80
68924;DHT22;55961;52.156;20.942;2023-07-24T13:26:35;31.90;36.20
68924;DHT22;55961;52.156;20.942;2023-07-24T13:29:03;31.80;36.60
68924;DHT22;55961;52.156;20.942;2023-07-24T13:31:31;31.70;36.20
68924;DHT22;55961;52.156;20.942;2023-07-24T13:33:57;31.70;36.50
68924;DHT22;55961;52.156;20.942;2023-07-24T13:36:23;31.60;36.70
68924;DHT22;55961;52.156;20.942;2023-07-24T13:38:49;31.50;36.70
68924;DHT22;55961;52.156;20.942;2023-07-24T13:41:16;31.50;36.70
68924;DHT22;55961;52.156;20.942;2023-07-24T13:43:42;31.40;36.90
68924;DHT22;55961;52.156;20.942;2023-07-24T13:46:08;31.30;37.20
68924;DHT22;55961;52.156;20.942;2023-07-24T13:48:34;31.30;37.10
68924;DHT22;55961;52.156;20.942;2023-07-24T13:51:00;31.40;37.60
68924;DHT22;55961;52.156;20.942;2023-07-24T13:53:28;31.40;37.40
68924;DHT22;55961;52.156;20.942;2023-07-24T13:55:54;31.50;36.60
68924;DHT22;55961;52.156;20.942;2023-07-24T13:58:20;31.50;35.70
68924;DHT22;55961;52.156;20.942;2023-07-24T14:00:46;31.60;35.80
68924;DHT22;55961;52.156;20.942;2023-07-24T14:03:12;31.60;35.20
68924;DHT22;55961;52.156;20.942;2023-07-24T14:05:38;31.70;34.50
68924;DHT22;55961;52.156;20.942;2023-07-24T14:08:05;31.80;34.30
68924;DHT22;55961;52.156;20.942;2023-07-24T14:10:31;31.90;34.30
68924;DHT22;55961;52.156;20.942;2023-07-24T14:12:57;32.10;33.90
68924;DHT22;55961;52.156;20.942;2023-07-24T14:15:23;32.20;33.50
68924;DHT22;55961;52.156;20.942;2023-07-24T14:17:49;32.20;33.70
68924;DHT22;55961;52.156;20.942;2023-07-24T14:20:15;32.30;34.10
68924;DHT22;55961;52.156;20.942;2023-07-24T14:22:41;32.30;33.70
68924;DHT22;55961;52.156;20.942;2023-07-24T14:25:08;32.30;33.70
68924;DHT22;55961;52.156;20.942;2023-07-24T14:27:33;32.30;34.30
68924;DHT22;55961;52.156;20.942;2023-07-24T14:29:59;32.40;34.30
68924;DHT22;55961;52.156;20.942;2023-07-24T14:32:25;32.40;34.20
68924;DHT22;55961;52.156;20.942;2023-07-24T14:34:52;32.50;34.00
68924;DHT22;55961;52.156;20.942;2023-07-24T14:37:19;32.50;34.00
68924;DHT22;55961;52.156;20.942;2023-07-24T14:39:45;32.60;34.00
68924;DHT22;55961;52.156;20.942;2023-07-24T14:42:12;32.60;33.90
68924;DHT22;55961;52.156;20.942;2023-07-24T14:44:38;32.70;34.00
68924;DHT22;55961;52.156;20.942;2023-07-24T14:47:04;32.70;33.70
68924;DHT22;55961;52.156;20.942;2023-07-24T14:49:30;32.70;33.70
68924;DHT22;55961;52.156;20.942;2023-07-24T14:51:56;32.60;34.10
68924;DHT22;55961;52.156;20.942;2023-07-24T14:54:22;32.50;34.20
68924;DHT22;55961;52.156;20.942;2023-07-24T14:56:49;32.50;34.60
68924;DHT22;55961;52.156;20.942;2023-07-24T14:59:15;32.40;34.30
68924;DHT22;55961;52.156;20.942;2023-07-24T15:01:42;32.40;34.40
68924;DHT22;55961;52.156;20.942;2023-07-24T15:04:07;32.30;34.40
68924;DHT22;55961;52.156;20.942;2023-07-24T15:06:33;32.30;34.20
68924;DHT22;55961;52.156;20.942;2023-07-24T15:08:59;32.20;34.40
68924;DHT22;55961;52.156;20.942;2023-07-24T15:11:25;32.10;34.70
68924;DHT22;55961;52.156;20.942;2023-07-24T15:13:52;32.10;34.90
68924;DHT22;55961;52.156;20.942;2023-07-24T15:16:18;32.10;34.80
68924;DHT22;55961;52.156;20.942;2023-07-24T15:18:44;32.10;34.90
68924;DHT22;55961;52.156;20.942;2023-07-24T15:21:10;32.00;35.00